UKBBUDYZ

Guest
Details From UKBB - Boryspil
To UDYZ - Zvartnots
Flight Number -
Tags Generated
Created
Modified
Stats Distance 835 nm / 1,547 km
Max Altitude 0 ft / 0 m
Waypoints 5
Social Downloads 0
Likes 0
Share VATSIM

Download

Looking for another format? Having issues loading an existing format? Contact us
Advertisement - Login to hide

Notes

Generated

Route

UKBB SOMON GUBOR ZVR12 UDYZ

ID Type Via Altitude Latitude Longitude Leg Dist Tot Dist Heading (true) Name
O UKBB APT - 0 ft / 0 m 50.36056˚ 30.90660˚ - 0 nm - -
SOMON FIX - 0 ft / 0 m 47.36980˚ 35.99006˚ 269 nm 269 nm 130° / 134° -
GUBOR FIX - 0 ft / 0 m 43.88167˚ 40.71167˚ 288 nm 557 nm 135° / 138° -
ZVR12 FIX - 0 ft / 0 m 40.23667˚ 44.26000˚ 270 nm 827 nm 143° / 145° -
O UDYZ APT - 0 ft / 0 m 40.14715˚ 44.37329˚ 7 nm 835 nm 136° / 136° -

Altitude Profile

Advertisement - Login to hide

Weather


0- 5 10 15 20 25 30 35+ Temperature / ° C

Clouds and Precipitation
Forecast for 2017-12-17 00:00 UTC. Updated an hour ago

Ground ~20,000 ft ~40,000 ft Winds

UKBB

Details ICAO UKBB (KBP)
Name Boryspil
Region Ukraine
Timezone Europe/Kiev (UTC+2.0)
Stats Elevation 421 ft / 128 m (AMSL)
Location 50.339472° 30.892903°
Runways 2
Magnetic Variation 7.670° E

METAR

UKBB 162000Z 24004MPS 9999 OVC016 08/06 Q1002 R88/290050 NOSIG

Decode

TAF

TAF UKBB 161701Z 1618/1718 22005G10MPS 5000 BR OVC007 TEMPO 1618/1624 28007G13MPS 1400 -SHRA BR BKN004 SCT015CB BECMG 1700/1701 30005G11MPS TEMPO 1701/1707 1000 BR BKN003 BECMG 1707/1709 36006G12MPS 6000 NSW SCT007 BKN040 TX07/1618Z TNM01/1718Z

Decode

Departure Runways

ID Width Length Bearing (true) Bearing (mag) Surface Threshold Offset Overrun Length
18L 197 ft / 60 m 13,152 ft / 4,009 m 182.72° 175.05° Concrete 0 ft / 0 m 295 ft / 90 m
18R 207 ft / 63 m 11,470 ft / 3,496 m 182.62° 174.95° Concrete 0 ft / 0 m 164 ft / 50 m
36L 207 ft / 63 m 11,470 ft / 3,496 m 2.62° 354.95° Concrete 0 ft / 0 m 164 ft / 50 m
36R 197 ft / 60 m 13,152 ft / 4,009 m 2.72° 355.05° Concrete 0 ft / 0 m 295 ft / 90 m

UDYZ

Details ICAO UDYZ (EVN)
Name ZVARTNOTS
Region Armenia
Timezone Asia/Yerevan (UTC+4.0)
Stats Elevation 2,838 ft / 865 m (AMSL)
Location 40.147271° 44.395880°
Runways 1
Magnetic Variation 6.201° E

METAR

UDYZ 162000Z 34001KT 1400 R09/P2000N BR NSC M03/M05 Q1026 R09/000070 NOSIG

Decode

TAF

Not found

Destination Runways

ID Width Length Bearing (true) Bearing (mag) Surface Threshold Offset Overrun Length
09 184 ft / 56 m 12,601 ft / 3,841 m 89.59° 83.39° Asphalt 0 ft / 0 m 0 ft / 0 m
27 184 ft / 56 m 12,601 ft / 3,841 m 269.62° 263.42° Asphalt 0 ft / 0 m 0 ft / 0 m

Approach Navaids

Runway Type Ident Frequency Range Bearing (true) Bearing (mag) Slope Elevation
09 Localiser IZR 108.10 MHz 18 nm / 33 km 89.83° 83.63° - 2,838 ft / 865 m (AMSL)
09 Glidescope IZR 108.10 MHz 10 nm / 19 km 89.61° 83.41° 2.67° 2,838 ft / 865 m (AMSL)

Popular Alternatives